Time,TemperatureF,DewpointF,PressureIn,WindDirection,WindDirectionDegrees,WindSpeedMPH,WindSpeedGustMPH,Humidity,HourlyPrecipIn,Conditions,Clouds,dailyrainin,SolarRadiationWatts/m^2,SoftwareType,DateUTC
2013-02-13 00:01:00,31.0,15.0,-100.00,East,94,0.0,4.0,51,0.00,,,0.34,0.000000,,2013-02-13 08:01:00,
2013-02-13 00:11:00,31.0,15.0,-100.00,East,94,0.0,4.0,51,0.00,,,0.34,0.000000,,2013-02-13 08:11:00,
2013-02-13 00:43:00,31.0,15.0,-100.00,East,86,0.0,4.0,51,0.00,,,0.34,0.000000,,2013-02-13 08:43:00,
2013-02-13 00:52:00,31.0,15.0,-100.00,East,86,0.0,4.0,51,0.00,,,0.34,0.000000,,2013-02-13 08:52:00,
2013-02-13 01:01:00,31.0,15.0,-100.00,East,86,0.0,4.0,51,0.00,,,0.34,0.000000,,2013-02-13 09:01:00,
2013-02-13 01:11:00,31.0,15.0,-100.00,East,86,0.0,4.0,51,0.00,,,0.34,0.000000,,2013-02-13 09:11:00,
2013-02-13 01:42:00,32.0,12.0,-100.00,East,81,0.0,3.0,42,0.00,,,0.34,0.000000,,2013-02-13 09:42:00,
2013-02-13 01:52:00,32.0,12.0,-100.00,East,81,0.0,3.0,42,0.00,,,0.34,0.000000,,2013-02-13 09:52:00,
2013-02-13 02:01:00,32.0,12.0,-100.00,East,81,0.0,3.0,42,0.00,,,0.34,0.000000,,2013-02-13 10:01:00,
2013-02-13 02:11:00,32.0,12.0,-100.00,East,81,0.0,3.0,42,0.00,,,0.34,0.000000,,2013-02-13 10:11:00,
2013-02-13 02:42:00,30.0,13.0,-100.00,SE,124,0.0,3.0,48,0.00,,,0.34,0.000000,,2013-02-13 10:42:00,
2013-02-13 02:52:00,30.0,13.0,-100.00,SE,124,0.0,3.0,48,0.00,,,0.34,0.000000,,2013-02-13 10:52:00,
2013-02-13 03:01:00,30.0,13.0,-100.00,SE,124,0.0,3.0,48,0.00,,,0.34,0.000000,,2013-02-13 11:01:00,
2013-02-13 03:11:00,30.0,13.0,-100.00,SE,124,0.0,3.0,48,0.00,,,0.34,0.000000,,2013-02-13 11:11:00,
2013-02-13 03:32:00,33.0,6.0,-100.00,NW,305,0.0,4.0,32,0.00,,,0.34,0.000000,,2013-02-13 11:32:00,
2013-02-13 03:42:00,33.0,6.0,-100.00,NW,305,0.0,4.0,32,0.00,,,0.34,0.000000,,2013-02-13 11:42:00,
2013-02-13 03:52:00,33.0,6.0,-100.00,NW,305,0.0,4.0,32,0.00,,,0.34,0.000000,,2013-02-13 11:52:00,
2013-02-13 04:02:00,33.0,6.0,-100.00,NW,305,0.0,4.0,32,0.00,,,0.34,0.000000,,2013-02-13 12:02:00,
2013-02-13 04:11:00,33.0,6.0,-100.00,NW,305,0.0,4.0,32,0.00,,,0.34,0.000000,,2013-02-13 12:11:00,
2013-02-13 04:42:00,33.0,9.0,-100.00,ESE,115,0.0,3.0,36,0.00,,,0.34,0.000000,,2013-02-13 12:42:00,
2013-02-13 04:52:00,33.0,9.0,-100.00,ESE,115,0.0,3.0,36,0.00,,,0.34,0.000000,,2013-02-13 12:52:00,
2013-02-13 05:02:00,33.0,9.0,-100.00,ESE,115,0.0,3.0,36,0.00,,,0.34,0.000000,,2013-02-13 13:02:00,
2013-02-13 05:11:00,33.0,9.0,-100.00,ESE,115,0.0,3.0,36,0.00,,,0.34,0.000000,,2013-02-13 13:11:00,
2013-02-13 05:42:00,32.0,9.0,-100.00,East,83,0.0,4.0,37,0.00,,,0.34,0.000000,,2013-02-13 13:42:00,
2013-02-13 05:52:00,32.0,9.0,-100.00,East,83,0.0,4.0,37,0.00,,,0.34,0.000000,,2013-02-13 13:52:00,
2013-02-13 06:01:00,32.0,9.0,-100.00,East,83,0.0,4.0,37,0.00,,,0.34,0.000000,,2013-02-13 14:01:00,
2013-02-13 06:11:00,32.0,9.0,-100.00,East,83,0.0,4.0,37,0.00,,,0.34,0.000000,,2013-02-13 14:11:00,
2013-02-13 06:42:00,33.0,7.0,-100.00,ESE,110,0.0,3.0,33,0.00,,,0.34,0.000000,,2013-02-13 14:42:00,
2013-02-13 06:52:00,33.0,7.0,-100.00,ESE,110,0.0,3.0,33,0.00,,,0.34,0.000000,,2013-02-13 14:52:00,
2013-02-13 07:01:00,33.0,7.0,-100.00,ESE,110,0.0,3.0,33,0.00,,,0.34,0.000000,,2013-02-13 15:01:00,
2013-02-13 07:11:00,33.0,7.0,-100.00,ESE,110,0.0,3.0,33,0.00,,,0.34,0.000000,,2013-02-13 15:11:00,
2013-02-13 07:42:00,35.0,7.0,-100.00,East,90,0.0,3.0,30,0.00,,,0.34,9.000000,,2013-02-13 15:42:00,
2013-02-13 07:52:00,35.0,7.0,-100.00,East,90,0.0,3.0,30,0.00,,,0.34,9.000000,,2013-02-13 15:52:00,
2013-02-13 08:01:00,35.0,7.0,-100.00,East,90,0.0,3.0,30,0.00,,,0.34,9.000000,,2013-02-13 16:01:00,
2013-02-13 08:11:00,35.0,7.0,-100.00,East,90,0.0,3.0,30,0.00,,,0.34,9.000000,,2013-02-13 16:11:00,
2013-02-13 08:42:00,54.0,14.0,-100.00,WSW,257,0.0,3.0,20,0.00,,,0.34,184.000000,,2013-02-13 16:42:00,
2013-02-13 08:52:00,54.0,14.0,-100.00,WSW,257,0.0,3.0,20,0.00,,,0.34,184.000000,,2013-02-13 16:52:00,
2013-02-13 09:01:00,54.0,14.0,-100.00,WSW,257,0.0,3.0,20,0.00,,,0.34,184.000000,,2013-02-13 17:01:00,
2013-02-13 09:42:00,58.0,18.0,-100.00,West,275,0.0,4.0,21,-99.99,,,0.34,501.000000,,2013-02-13 17:42:00,
2013-02-13 09:52:00,58.0,18.0,-100.00,West,275,0.0,4.0,21,-99.99,,,0.34,501.000000,,2013-02-13 17:52:00,
2013-02-13 10:01:00,58.0,18.0,-100.00,West,275,0.0,4.0,21,-99.99,,,0.34,501.000000,,2013-02-13 18:01:00,
2013-02-13 10:42:00,57.0,15.0,-100.00,NW,316,1.0,6.0,19,-99.99,,,0.37,712.000000,,2013-02-13 18:42:00,
2013-02-13 10:52:00,57.0,15.0,-100.00,NW,316,1.0,6.0,19,-99.99,,,0.37,712.000000,,2013-02-13 18:52:00,
2013-02-13 11:01:00,57.0,15.0,-100.00,NW,316,1.0,6.0,19,-99.99,,,0.37,712.000000,,2013-02-13 19:01:00,
2013-02-13 11:11:00,57.0,15.0,-100.00,NW,316,1.0,6.0,19,-99.99,,,0.37,712.000000,,2013-02-13 19:11:00,
2013-02-13 11:42:00,58.0,16.0,-100.00,West,264,1.0,7.0,19,0.05,,,0.39,859.000000,,2013-02-13 19:42:00,
2013-02-13 11:52:00,58.0,16.0,-100.00,West,264,1.0,7.0,19,0.05,,,0.39,859.000000,,2013-02-13 19:52:00,
2013-02-13 12:02:00,58.0,16.0,-100.00,West,264,1.0,7.0,19,0.05,,,0.39,859.000000,,2013-02-13 20:02:00,
2013-02-13 12:11:00,58.0,16.0,-100.00,West,264,1.0,7.0,19,0.05,,,0.39,859.000000,,2013-02-13 20:11:00,
2013-02-13 12:42:00,59.0,17.0,-100.00,West,260,3.0,9.0,19,0.05,,,0.38,927.000000,,2013-02-13 20:42:00,
2013-02-13 12:52:00,59.0,17.0,-100.00,West,260,3.0,9.0,19,0.05,,,0.38,927.000000,,2013-02-13 20:52:00,
2013-02-13 13:01:00,59.0,17.0,-100.00,West,260,3.0,9.0,19,0.05,,,0.38,927.000000,,2013-02-13 21:01:00,
2013-02-13 13:11:00,59.0,17.0,-100.00,West,260,3.0,9.0,19,0.05,,,0.38,927.000000,,2013-02-13 21:11:00,
2013-02-13 13:42:00,59.0,13.0,-100.00,South,171,4.0,10.0,16,0.04,,,0.35,914.000000,,2013-02-13 21:42:00,
2013-02-13 13:52:00,59.0,13.0,-100.00,South,171,4.0,10.0,16,0.04,,,0.35,914.000000,,2013-02-13 21:52:00,
2013-02-13 14:02:00,59.0,13.0,-100.00,South,171,4.0,10.0,16,0.04,,,0.35,914.000000,,2013-02-13 22:02:00,
2013-02-13 14:11:00,59.0,13.0,-100.00,South,171,4.0,10.0,16,0.04,,,0.35,914.000000,,2013-02-13 22:11:00,
2013-02-13 14:42:00,58.0,17.0,-100.00,West,272,4.0,11.0,20,0.04,,,0.32,821.000000,,2013-02-13 22:42:00,
2013-02-13 14:52:00,58.0,17.0,-100.00,West,272,4.0,11.0,20,0.04,,,0.32,821.000000,,2013-02-13 22:52:00,
2013-02-13 15:01:00,58.0,17.0,-100.00,West,272,4.0,11.0,20,0.04,,,0.32,821.000000,,2013-02-13 23:01:00,
2013-02-13 15:11:00,58.0,17.0,-100.00,West,272,4.0,11.0,20,0.04,,,0.32,821.000000,,2013-02-13 23:11:00,
2013-02-13 15:42:00,59.0,18.0,-100.00,WSW,254,2.0,11.0,20,0.01,,,0.28,655.000000,,2013-02-13 23:42:00,
2013-02-13 15:52:00,59.0,18.0,-100.00,WSW,254,2.0,11.0,20,0.01,,,0.28,655.000000,,2013-02-13 23:52:00,
2013-02-13 16:01:00,59.0,18.0,-100.00,WSW,254,2.0,11.0,20,0.01,,,0.28,655.000000,,2013-02-14 00:01:00,
2013-02-13 16:11:00,59.0,18.0,-100.00,WSW,254,2.0,11.0,20,0.01,,,0.28,655.000000,,2013-02-14 00:11:00,
2013-02-13 16:42:00,57.0,17.0,-100.00,West,280,2.0,8.0,21,0.00,,,0.25,427.000000,,2013-02-14 00:42:00,
2013-02-13 16:52:00,57.0,17.0,-100.00,West,280,2.0,8.0,21,0.00,,,0.25,427.000000,,2013-02-14 00:52:00,
2013-02-13 17:01:00,57.0,17.0,-100.00,West,280,2.0,8.0,21,0.00,,,0.25,427.000000,,2013-02-14 01:01:00,
2013-02-13 17:11:00,57.0,17.0,-100.00,West,280,2.0,8.0,21,0.00,,,0.25,427.000000,,2013-02-14 01:11:00,
2013-02-13 17:42:00,49.0,16.0,-100.00,West,273,0.0,6.0,26,0.00,,,-99.99,106.000000,,2013-02-14 01:42:00,
2013-02-13 17:51:00,49.0,16.0,-100.00,West,273,0.0,6.0,26,0.00,,,-99.99,106.000000,,2013-02-14 01:51:00,
2013-02-13 18:01:00,49.0,16.0,-100.00,West,273,0.0,6.0,26,0.00,,,-99.99,106.000000,,2013-02-14 02:01:00,
2013-02-13 18:11:00,49.0,16.0,-100.00,West,273,0.0,6.0,26,0.00,,,-99.99,106.000000,,2013-02-14 02:11:00,
2013-02-13 19:02:00,42.0,17.0,-100.00,NNE,13,0.0,4.0,36,0.00,,,0.23,4.000000,,2013-02-14 03:02:00,
2013-02-13 19:11:00,42.0,17.0,-100.00,NNE,13,0.0,4.0,36,0.00,,,0.23,4.000000,,2013-02-14 03:11:00,
2013-02-13 19:42:00,40.0,16.0,-100.00,SE,141,0.0,0.0,37,0.00,,,0.23,0.000000,,2013-02-14 03:42:00,
2013-02-13 19:52:00,40.0,16.0,-100.00,SE,141,0.0,0.0,37,0.00,,,0.23,0.000000,,2013-02-14 03:52:00,
2013-02-13 20:01:00,40.0,16.0,-100.00,SE,141,0.0,0.0,37,0.00,,,0.23,0.000000,,2013-02-14 04:01:00,
2013-02-13 20:11:00,40.0,16.0,-100.00,SE,141,0.0,0.0,37,0.00,,,0.23,0.000000,,2013-02-14 04:11:00,
2013-02-13 20:32:00,37.0,15.0,-100.00,ESE,119,0.0,0.0,40,0.00,,,0.23,0.000000,,2013-02-14 04:32:00,
2013-02-13 20:42:00,37.0,15.0,-100.00,ESE,119,0.0,0.0,40,0.00,,,0.23,0.000000,,2013-02-14 04:42:00,
2013-02-13 20:52:00,37.0,15.0,-100.00,ESE,119,0.0,0.0,40,0.00,,,0.23,0.000000,,2013-02-14 04:52:00,
2013-02-13 21:01:00,37.0,15.0,-100.00,ESE,119,0.0,0.0,40,0.00,,,0.23,0.000000,,2013-02-14 05:01:00,
2013-02-13 21:42:00,38.0,17.0,-100.00,East,101,0.0,2.0,42,0.00,,,0.23,0.000000,,2013-02-14 05:42:00,
2013-02-13 21:52:00,38.0,17.0,-100.00,East,101,0.0,2.0,42,0.00,,,0.23,0.000000,,2013-02-14 05:52:00,
2013-02-13 22:01:00,38.0,17.0,-100.00,East,101,0.0,2.0,42,0.00,,,0.23,0.000000,,2013-02-14 06:01:00,
2013-02-13 22:11:00,38.0,17.0,-100.00,East,101,0.0,2.0,42,0.00,,,0.23,0.000000,,2013-02-14 06:11:00,
2013-02-13 22:42:00,38.0,18.0,-100.00,ENE,78,0.0,0.0,43,0.00,,,0.23,0.000000,,2013-02-14 06:42:00,
2013-02-13 22:52:00,38.0,18.0,-100.00,ENE,78,0.0,0.0,43,0.00,,,0.23,0.000000,,2013-02-14 06:52:00,
2013-02-13 23:01:00,38.0,18.0,-100.00,ENE,78,0.0,0.0,43,0.00,,,0.23,0.000000,,2013-02-14 07:01:00,
2013-02-13 23:11:00,38.0,18.0,-100.00,ENE,78,0.0,0.0,43,0.00,,,0.23,0.000000,,2013-02-14 07:11:00,
2013-02-13 23:42:00,38.0,15.0,-100.00,ESE,108,0.0,0.0,39,0.00,,,0.23,0.000000,,2013-02-14 07:42:00,
2013-02-13 23:52:00,38.0,15.0,-100.00,ESE,108,0.0,0.0,39,0.00,,,0.23,0.000000,,2013-02-14 07:52:00,